createdAt,value
2016-11-02T00:00:33.423Z,45.5
2016-11-02T00:05:38.190Z,45.5
2016-11-02T00:10:42.620Z,45.5
2016-11-02T00:15:46.723Z,45.4
2016-11-02T00:20:50.816Z,45.4
2016-11-02T00:25:55.250Z,45.3
2016-11-02T00:30:59.678Z,45.3
2016-11-02T00:36:03.776Z,45.2
2016-11-02T00:41:07.872Z,45.3
2016-11-02T00:46:11.970Z,45.1
2016-11-02T00:51:16.063Z,45.1
2016-11-02T00:56:20.162Z,45.1
2016-11-02T01:01:24.251Z,45.1
2016-11-02T01:06:28.349Z,44.8
2016-11-02T01:11:32.441Z,45
2016-11-02T01:16:36.533Z,44.8
2016-11-02T01:21:40.639Z,45
2016-11-02T01:26:44.730Z,44.9
2016-11-02T01:31:49.166Z,44.6
2016-11-02T01:36:53.599Z,44.9
2016-11-02T01:41:57.709Z,44.6
2016-11-02T01:47:01.805Z,44.6
2016-11-02T01:52:05.895Z,44.7
2016-11-02T01:57:10.319Z,44.6
2016-11-02T02:02:15.085Z,44.5
2016-11-02T02:07:19.172Z,44.3
2016-11-02T02:12:23.269Z,44.1
2016-11-02T02:17:27.362Z,44.2
2016-11-02T02:22:31.457Z,44.4
2016-11-02T02:27:35.891Z,44.3
2016-11-02T02:32:39.981Z,44.2
2016-11-02T02:37:44.414Z,44.2
2016-11-02T02:42:48.515Z,44.2
2016-11-02T02:47:52.938Z,44.1
2016-11-02T02:52:57.030Z,44
2016-11-02T02:58:01.120Z,44
2016-11-02T03:03:05.546Z,44.1
2016-11-02T03:08:09.642Z,44
2016-11-02T03:13:13.733Z,44
2016-11-02T03:18:17.827Z,44
2016-11-02T03:23:22.259Z,44.1
2016-11-02T03:28:26.350Z,44
2016-11-02T03:33:30.776Z,44
2016-11-02T03:38:35.207Z,44
2016-11-02T03:43:40.309Z,44
2016-11-02T03:48:44.402Z,44
2016-11-02T03:53:48.500Z,44
2016-11-02T03:58:52.924Z,44
2016-11-02T04:03:57.026Z,43.9
2016-11-02T04:09:01.450Z,43.9
2016-11-02T04:14:05.880Z,43.9
2016-11-02T04:19:09.977Z,44
2016-11-02T04:24:14.069Z,44
2016-11-02T04:29:18.495Z,44
2016-11-02T04:34:23.260Z,44
2016-11-02T04:39:27.356Z,44
2016-11-02T04:44:31.448Z,44
2016-11-02T04:49:35.880Z,44
2016-11-02T04:54:40.306Z,44.1
2016-11-02T04:59:44.745Z,44.1
2016-11-02T05:04:49.177Z,44.1
2016-11-02T05:09:53.624Z,44.2
2016-11-02T05:14:57.724Z,44.2
2016-11-02T05:20:02.046Z,44.3
2016-11-02T05:25:06.141Z,44.6
2016-11-02T05:30:10.237Z,44.5
2016-11-02T05:35:14.675Z,44.4
2016-11-02T05:40:18.778Z,44.7
2016-11-02T05:45:22.872Z,45
2016-11-02T05:50:26.963Z,45.2
2016-11-02T05:55:31.393Z,45.9
2016-11-02T06:00:35.883Z,47.3
2016-11-02T06:05:39.976Z,47.6
2016-11-02T06:10:44.406Z,47.9
2016-11-02T06:15:49.186Z,48.5
2016-11-02T06:20:53.620Z,48.7
2016-11-02T06:25:57.714Z,48.4
2016-11-02T06:31:02.151Z,48.6
2016-11-02T06:36:06.239Z,48.8
2016-11-02T06:41:11.000Z,47.6
2016-11-02T06:46:15.099Z,47.4
2016-11-02T06:51:19.533Z,47.1
2016-11-02T06:56:23.633Z,47
2016-11-02T07:01:28.052Z,46.9
2016-11-02T07:06:32.483Z,46.8
2016-11-02T07:11:36.918Z,46.9
2016-11-02T07:16:41.013Z,46.9
2016-11-02T07:21:45.445Z,46.7
2016-11-02T07:26:49.551Z,46.6
2016-11-02T07:31:53.645Z,46.6
2016-11-02T07:36:57.738Z,46.5
2016-11-02T07:42:02.187Z,46.4
2016-11-02T07:47:06.273Z,46.4
2016-11-02T07:52:10.699Z,46.3
2016-11-02T07:57:14.789Z,46.2
2016-11-02T08:02:19.222Z,46.2
2016-11-02T08:07:23.325Z,46.2
2016-11-02T08:12:27.758Z,46.2
2016-11-02T08:17:32.188Z,46.3
2016-11-02T08:22:36.956Z,46.2
2016-11-02T08:27:41.060Z,46.3
2016-11-02T08:32:45.489Z,46.3
2016-11-02T08:37:50.263Z,46.2
2016-11-02T08:42:55.364Z,46.2
2016-11-02T08:47:59.457Z,46.2
2016-11-02T08:53:03.550Z,46.3
2016-11-02T08:58:07.648Z,46.8
2016-11-02T09:03:12.082Z,46.8
2016-11-02T09:08:16.511Z,46.6
2016-11-02T09:13:20.940Z,46.2
2016-11-02T09:18:25.368Z,45.9
2016-11-02T09:23:29.464Z,45.7
2016-11-02T09:28:33.565Z,45.5
2016-11-02T09:33:38.001Z,45.4
2016-11-02T09:38:42.434Z,45.4
2016-11-02T09:43:46.531Z,45.5
2016-11-02T09:48:50.627Z,45.4
2016-11-02T09:53:54.722Z,45.4
2016-11-02T09:58:58.815Z,45.4
2016-11-02T10:04:02.918Z,45.5
2016-11-02T10:09:07.012Z,45.6
2016-11-02T10:14:11.442Z,45.7
2016-11-02T10:19:15.540Z,45.8
2016-11-02T10:24:19.645Z,45.7
2016-11-02T10:29:23.740Z,45.5
2016-11-02T10:34:27.830Z,45.2
2016-11-02T10:39:32.255Z,45.2
2016-11-02T10:44:37.354Z,45.3
2016-11-02T10:49:42.122Z,45.2
2016-11-02T10:54:46.220Z,45.3
2016-11-02T10:59:50.447Z,45.3
2016-11-02T11:04:55.215Z,45.6
2016-11-02T11:09:59.305Z,45.6
2016-11-02T11:15:03.411Z,45.8
2016-11-02T11:20:07.511Z,45.8
2016-11-02T11:25:12.278Z,45.7
2016-11-02T11:30:16.711Z,45.5
2016-11-02T11:35:21.137Z,45.2
2016-11-02T11:40:25.907Z,45.2
2016-11-02T11:45:30.341Z,45.3
2016-11-02T11:50:34.777Z,45.4
2016-11-02T11:55:38.880Z,45.5
2016-11-02T12:00:43.316Z,45.6
2016-11-02T12:05:48.244Z,45.6
2016-11-02T12:10:52.323Z,45.7
2016-11-02T12:15:56.426Z,45.7
2016-11-02T12:21:00.523Z,45.8
2016-11-02T12:26:04.965Z,45.8
2016-11-02T12:31:09.062Z,45.9
2016-11-02T12:36:13.489Z,45.9
2016-11-02T12:41:17.928Z,45.9
2016-11-02T12:46:22.363Z,45.9
2016-11-02T12:51:26.457Z,45.9
2016-11-02T12:56:30.554Z,46.1
2016-11-02T13:01:35.011Z,46
2016-11-02T13:06:39.446Z,45.6
2016-11-02T13:11:43.554Z,45.4
2016-11-02T13:16:48.006Z,45.4
2016-11-02T13:21:52.808Z,45.4
2016-11-02T13:26:57.243Z,45.8
2016-11-02T13:32:02.341Z,46.2
2016-11-02T13:37:06.776Z,46.4
2016-11-02T13:42:10.967Z,46.5
2016-11-02T13:47:15.192Z,46.5
2016-11-02T13:52:19.322Z,46.7
2016-11-02T13:57:24.435Z,46.7
2016-11-02T14:02:28.890Z,46.6
2016-11-02T14:07:33.655Z,46.5
2016-11-02T14:12:38.082Z,46.6
2016-11-02T14:17:42.562Z,46.7
2016-11-02T14:22:46.991Z,46.8
2016-11-02T14:27:51.150Z,46.9
2016-11-02T14:32:55.663Z,46.8
2016-11-02T14:37:59.762Z,46.8
2016-11-02T14:43:03.854Z,46.8
2016-11-02T14:48:07.955Z,46.8
2016-11-02T14:53:12.059Z,46.8
2016-11-02T14:58:16.158Z,46.8
2016-11-02T15:03:20.276Z,46.8
2016-11-02T15:08:24.710Z,46.7
2016-11-02T15:13:29.010Z,46.7
2016-11-02T15:18:33.076Z,47.2
2016-11-02T15:23:37.841Z,47.6
2016-11-02T15:28:42.283Z,47.6
2016-11-02T15:33:47.046Z,47.4
2016-11-02T15:38:51.401Z,47
2016-11-02T15:43:55.509Z,46.6
2016-11-02T15:48:59.605Z,46.4
2016-11-02T15:54:03.717Z,46.2
2016-11-02T15:59:08.148Z,45.7
2016-11-02T16:04:12.576Z,45.3
2016-11-02T16:09:17.006Z,45.7
2016-11-02T16:14:21.472Z,45.1
2016-11-02T16:19:25.584Z,44.8
2016-11-02T16:24:29.676Z,44.8
2016-11-02T16:29:33.773Z,44.8
2016-11-02T16:34:38.072Z,44.7
2016-11-02T16:39:42.182Z,44.3
2016-11-02T16:44:46.618Z,44.3
2016-11-02T16:49:50.705Z,44.3
2016-11-02T16:54:55.143Z,44.4
2016-11-02T16:59:59.268Z,44.4
2016-11-02T17:05:03.735Z,44.7
2016-11-02T17:10:07.832Z,44.6
2016-11-02T17:15:11.940Z,44.4
2016-11-02T17:20:16.278Z,44.4
2016-11-02T17:25:20.376Z,44.7
2016-11-02T17:30:24.471Z,44.3
2016-11-02T17:35:28.905Z,44
2016-11-02T17:40:32.992Z,43.8
2016-11-02T17:45:37.434Z,43.8
2016-11-02T17:50:41.960Z,44
2016-11-02T17:55:46.515Z,44.9
2016-11-02T18:00:50.607Z,44.8
2016-11-02T18:05:55.033Z,44.9
2016-11-02T18:10:59.796Z,44.8
2016-11-02T18:16:04.559Z,45.2
2016-11-02T18:21:08.990Z,45.8
2016-11-02T18:26:13.081Z,45.7
2016-11-02T18:31:17.518Z,45.6
2016-11-02T18:36:21.602Z,45.4
2016-11-02T18:41:25.690Z,45.1
2016-11-02T18:46:30.113Z,44.8
2016-11-02T18:51:34.539Z,44.4
2016-11-02T18:56:38.638Z,44
2016-11-02T19:01:42.730Z,43.7
2016-11-02T19:06:47.164Z,43.5
2016-11-02T19:11:51.263Z,43.3
2016-11-02T19:16:55.707Z,42.9
2016-11-02T19:22:00.141Z,42.1
2016-11-02T19:27:04.230Z,41.5
2016-11-02T19:32:08.999Z,41.1
2016-11-02T19:37:13.439Z,40.8
2016-11-02T19:42:17.531Z,40.6
2016-11-02T19:47:21.624Z,40.3
2016-11-02T19:52:26.394Z,40
2016-11-02T19:57:30.828Z,39.8
2016-11-02T20:02:34.925Z,39.6
2016-11-02T20:07:39.011Z,39.5
2016-11-02T20:12:43.381Z,39.6
2016-11-02T20:17:47.808Z,37.8
2016-11-02T20:22:51.915Z,40
2016-11-02T20:27:56.015Z,40.5
2016-11-02T20:33:00.436Z,40.8
2016-11-02T20:38:04.869Z,41.1
2016-11-02T20:43:09.292Z,41.3
2016-11-02T20:48:14.049Z,41.5
2016-11-02T20:53:18.472Z,41.8
2016-11-02T20:58:22.903Z,42.1
2016-11-02T21:03:26.987Z,42.7
2016-11-02T21:08:31.079Z,42.7
2016-11-02T21:13:35.507Z,43.6
2016-11-02T21:18:40.006Z,43.6
2016-11-02T21:23:44.434Z,43.2
2016-11-02T21:28:48.544Z,42.7
2016-11-02T21:33:52.645Z,43.1
2016-11-02T21:38:57.090Z,43.3
2016-11-02T21:44:01.521Z,43.7
2016-11-02T21:49:06.284Z,43.7
2016-11-02T21:54:11.051Z,43.8
2016-11-02T21:59:15.599Z,43.8
2016-11-02T22:04:20.059Z,43.4
2016-11-02T22:09:24.507Z,43.2
2016-11-02T22:14:28.941Z,43
2016-11-02T22:19:33.036Z,43.1
2016-11-02T22:24:37.804Z,43.3
2016-11-02T22:29:42.232Z,43
2016-11-02T22:34:47.324Z,43.1
2016-11-02T22:39:51.431Z,43
2016-11-02T22:44:56.200Z,43
2016-11-02T22:50:00.629Z,43
2016-11-02T22:55:04.728Z,42.9
2016-11-02T23:00:08.830Z,42.9
2016-11-02T23:05:13.585Z,42.9
2016-11-02T23:10:17.677Z,42.9
2016-11-02T23:15:21.776Z,42.8
2016-11-02T23:20:26.539Z,42.9
2016-11-02T23:25:30.966Z,42.8
2016-11-02T23:30:35.397Z,42.9
2016-11-02T23:35:39.491Z,42.8
2016-11-02T23:40:43.918Z,42.8
2016-11-02T23:45:48.002Z,42.9
2016-11-02T23:50:52.098Z,42.9
2016-11-02T23:55:56.188Z,42.8
